»·PEaware :: N102EF KSBA-KSNA

N102EF :: KSBA-KSNA

FLIGHT INFORMATION

Flight Status: Arrived
Operator: Privately registered:
United States
More flights under this callsign
Pilot: Ron R. (25532)
Aircraft: BEECH AIRCRAFT DUKE
(BE60)
More flights by this aircraft type
Origin: KSBA Santa Barbara Mun
United States
Destination: KSNA John Wayne-Orange Co
United States
More flights between these airports :: More routes between these airports
Route: +KWANG CMA VNY V186 BAYJY V363 POXKU V8 SLI
File this flight plan on PilotEdge
Remarks:
Altitude:
(Current/Filed)
5,000ft
Speed:
(Current/Filed)
200kts
Departed: 27-Nov-19 11:27 AM
Arrived: 27-Nov-19 12:26 PM
Distance/Time
Traveled:
108nm/0:59
Distance/Time
To Go:
Arrived

Flight Plot

Page will automatically refresh every two minutes.


Map Options




Map Legend


Flown Route
Filed Route
Departure Airport
Arrival Airport
Navaid (VOR, NDB)
Fix

Horizontal Profiles

Position Reports

Time Latitude Longitude Heading Altitude Ground
Speed
27-Nov-19 11:02 34.424506 -119.836003 255 13ft 0kts
27-Nov-19 11:03 34.424506 -119.836003 255 13ft 0kts
27-Nov-19 11:04 34.424506 -119.836003 255 13ft 0kts
27-Nov-19 11:05 34.424505 -119.836004 255 13ft 0kts
27-Nov-19 11:06 34.424505 -119.836007 255 13ft 0kts
27-Nov-19 11:07 34.424504 -119.836011 255 13ft 0kts
27-Nov-19 11:08 34.424503 -119.836015 255 13ft 0kts
27-Nov-19 11:09 34.424502 -119.836018 255 13ft 0kts
27-Nov-19 11:10 34.424502 -119.836022 255 13ft 0kts
27-Nov-19 11:11 34.424501 -119.836026 255 13ft 0kts
27-Nov-19 11:12 34.424500 -119.836029 255 13ft 0kts
27-Nov-19 11:13 34.424499 -119.836033 255 13ft 0kts
27-Nov-19 11:14 34.424498 -119.836037 255 13ft 0kts
27-Nov-19 11:15 34.424498 -119.836040 255 13ft 0kts
27-Nov-19 11:16 34.424476 -119.836139 255 13ft 1kts
27-Nov-19 11:17 34.425564 -119.837128 343 13ft 10kts
27-Nov-19 11:18 34.426965 -119.834917 48 13ft 7kts
27-Nov-19 11:19 34.427207 -119.834909 281 13ft 0kts
27-Nov-19 11:20 34.427208 -119.834913 281 13ft 0kts
27-Nov-19 11:21 34.427210 -119.834923 281 13ft 0kts
27-Nov-19 11:22 34.427211 -119.834930 281 13ft 0kts
27-Nov-19 11:23 34.427218 -119.834978 278 13ft 1kts
27-Nov-19 11:24 34.427400 -119.835157 359 13ft 0kts
27-Nov-19 11:25 34.427452 -119.835158 359 13ft 2kts
27-Nov-19 11:26 34.427672 -119.846872 269 47ft 117kts
27-Nov-19 11:27 34.427396 -119.891317 269 1561ft 131kts
27-Nov-19 11:28 34.426264 -119.932812 269 3507ft 119kts
27-Nov-19 11:29 34.425198 -119.975231 268 5015ft 153kts
27-Nov-19 11:30 34.402166 -120.018181 192 5007ft 195kts
27-Nov-19 11:31 34.365976 -119.971795 90 5014ft 223kts
27-Nov-19 11:32 34.371243 -119.896872 82 5003ft 223kts
27-Nov-19 11:33 34.377777 -119.822048 82 5003ft 223kts
27-Nov-19 11:34 34.384465 -119.747006 82 5003ft 223kts
27-Nov-19 11:35 34.381040 -119.672710 100 5002ft 222kts
27-Nov-19 11:36 34.371199 -119.598789 100 5000ft 222kts
27-Nov-19 11:37 34.361698 -119.525029 100 4998ft 221kts
27-Nov-19 11:38 34.352176 -119.451454 100 4997ft 221kts
27-Nov-19 11:39 34.342629 -119.378020 100 4999ft 220kts
27-Nov-19 11:40 34.333099 -119.305121 100 4999ft 219kts
27-Nov-19 11:41 34.323588 -119.232576 101 5000ft 218kts
27-Nov-19 11:43 34.314197 -119.160304 101 5001ft 217kts
27-Nov-19 11:44 34.304702 -119.088498 102 5002ft 215kts
27-Nov-19 11:45 34.295167 -119.016904 102 5001ft 214kts
27-Nov-19 11:46 34.285665 -118.945894 102 5000ft 213kts
27-Nov-19 11:47 34.276178 -118.875268 103 4997ft 212kts
27-Nov-19 11:48 34.266668 -118.804864 103 4986ft 211kts
27-Nov-19 11:49 34.257183 -118.734878 104 4986ft 210kts
27-Nov-19 11:50 34.247680 -118.665093 104 4994ft 209kts
27-Nov-19 11:51 34.238236 -118.596037 105 5000ft 208kts
27-Nov-19 11:52 34.228749 -118.527032 105 4999ft 208kts
27-Nov-19 11:53 34.214618 -118.460613 117 4996ft 201kts
27-Nov-19 11:54 34.195129 -118.397371 117 5010ft 200kts
27-Nov-19 11:55 34.175922 -118.334152 117 5004ft 200kts
27-Nov-19 11:56 34.156668 -118.270893 117 5008ft 199kts
27-Nov-19 11:57 34.137517 -118.208096 118 5014ft 199kts
27-Nov-19 11:58 34.118329 -118.145468 118 5023ft 199kts
27-Nov-19 11:58 34.102334 -118.093396 118 5041ft 198kts
27-Nov-19 12:00 34.080022 -118.020732 118 5052ft 198kts
27-Nov-19 12:01 34.060778 -117.958174 118 5051ft 198kts
27-Nov-19 12:02 34.041519 -117.895701 118 5041ft 198kts
27-Nov-19 12:03 34.022230 -117.833255 118 5032ft 198kts
27-Nov-19 12:04 33.991516 -117.785443 170 5032ft 175kts
27-Nov-19 12:04 33.954236 -117.784391 182 4297ft 156kts
27-Nov-19 12:05 33.913780 -117.783508 181 4028ft 142kts
27-Nov-19 12:07 33.868670 -117.782422 182 4029ft 136kts
27-Nov-19 12:08 33.841508 -117.806205 262 3790ft 161kts
27-Nov-19 12:08 33.847619 -117.852961 272 3040ft 156kts
27-Nov-19 12:09 33.878043 -117.872278 29 3050ft 159kts
27-Nov-19 12:11 33.908659 -117.828198 92 3039ft 151kts
27-Nov-19 12:11 33.912427 -117.785678 92 3031ft 154kts
27-Nov-19 12:12 33.916795 -117.734730 92 3022ft 150kts
27-Nov-19 12:13 33.924804 -117.685776 80 3025ft 150kts
27-Nov-19 12:14 33.945960 -117.687839 240 3060ft 118kts
27-Nov-19 12:15 33.924071 -117.716549 212 3015ft 113kts
27-Nov-19 12:16 33.894787 -117.729719 204 3024ft 113kts
27-Nov-19 12:17 33.866630 -117.747392 206 3024ft 114kts
27-Nov-19 12:18 33.838588 -117.765367 206 3029ft 114kts
27-Nov-19 12:19 33.810850 -117.783061 206 2894ft 104kts
27-Nov-19 12:20 33.785713 -117.798918 206 2339ft 101kts
27-Nov-19 12:21 33.760925 -117.814674 207 1806ft 100kts
27-Nov-19 12:22 33.735341 -117.830792 209 1262ft 107kts
27-Nov-19 12:23 33.708396 -117.848019 209 683ft 110kts
27-Nov-19 12:24 33.681380 -117.865197 209 97ft 108kts
27-Nov-19 12:25 33.671956 -117.872494 309 59ft 8kts
27-Nov-19 12:26 33.674897 -117.870992 23 59ft 11kts
27-Nov-19 12:27 33.675693 -117.871616 26 59ft 0kts
27-Nov-19 12:28 33.675694 -117.871615 26 59ft 0kts

Navigation Log

Ident Type
Flight plan parsing failed, navigation log unavailable